sensor_id;sensor_type;location;lat;lon;timestamp;temperature;humidity
25280;DHT22;13225;47.804;12.116;2024-02-21T00:00:15;3.50;99.90
25280;DHT22;13225;47.804;12.116;2024-02-21T00:02:40;3.50;99.90
25280;DHT22;13225;47.804;12.116;2024-02-21T00:05:06;3.50;99.90
25280;DHT22;13225;47.804;12.116;2024-02-21T00:07:32;3.40;99.90
25280;DHT22;13225;47.804;12.116;2024-02-21T00:09:58;3.40;99.90
25280;DHT22;13225;47.804;12.116;2024-02-21T00:12:23;3.40;99.90
25280;DHT22;13225;47.804;12.116;2024-02-21T00:14:49;3.40;99.90
25280;DHT22;13225;47.804;12.116;2024-02-21T00:17:15;3.50;99.90
25280;DHT22;13225;47.804;12.116;2024-02-21T00:19:41;3.50;99.90
25280;DHT22;13225;47.804;12.116;2024-02-21T00:22:06;3.40;99.90
25280;DHT22;13225;47.804;12.116;2024-02-21T00:24:32;3.50;99.90
25280;DHT22;13225;47.804;12.116;2024-02-21T00:26:57;3.40;99.90
25280;DHT22;13225;47.804;12.116;2024-02-21T00:29:25;3.40;99.90
25280;DHT22;13225;47.804;12.116;2024-02-21T00:31:51;3.40;99.90
25280;DHT22;13225;47.804;12.116;2024-02-21T00:34:16;3.30;99.90
25280;DHT22;13225;47.804;12.116;2024-02-21T00:36:42;3.30;99.90
25280;DHT22;13225;47.804;12.116;2024-02-21T00:39:08;3.40;99.90
25280;DHT22;13225;47.804;12.116;2024-02-21T00:41:33;3.40;99.90
25280;DHT22;13225;47.804;12.116;2024-02-21T00:43:59;3.40;99.90
25280;DHT22;13225;47.804;12.116;2024-02-21T00:46:24;3.50;99.90
25280;DHT22;13225;47.804;12.116;2024-02-21T00:48:50;3.50;99.90
25280;DHT22;13225;47.804;12.116;2024-02-21T00:51:16;3.50;99.90
25280;DHT22;13225;47.804;12.116;2024-02-21T00:53:42;3.40;99.90
25280;DHT22;13225;47.804;12.116;2024-02-21T00:56:08;3.40;99.90
25280;DHT22;13225;47.804;12.116;2024-02-21T00:58:33;3.40;99.90
25280;DHT22;13225;47.804;12.116;2024-02-21T01:01:00;3.50;99.90
25280;DHT22;13225;47.804;12.116;2024-02-21T01:03:26;3.50;99.90
25280;DHT22;13225;47.804;12.116;2024-02-21T01:05:51;3.40;99.90
25280;DHT22;13225;47.804;12.116;2024-02-21T01:08:17;3.40;99.90
25280;DHT22;13225;47.804;12.116;2024-02-21T01:10:43;3.40;99.90
25280;DHT22;13225;47.804;12.116;2024-02-21T01:13:08;3.40;99.90
25280;DHT22;13225;47.804;12.116;2024-02-21T01:15:34;3.40;99.90
25280;DHT22;13225;47.804;12.116;2024-02-21T01:18:01;3.50;99.90
25280;DHT22;13225;47.804;12.116;2024-02-21T01:20:26;3.40;99.90
25280;DHT22;13225;47.804;12.116;2024-02-21T01:22:52;3.40;99.90
25280;DHT22;13225;47.804;12.116;2024-02-21T01:25:18;3.40;99.90
25280;DHT22;13225;47.804;12.116;2024-02-21T01:27:43;3.50;99.90
25280;DHT22;13225;47.804;12.116;2024-02-21T01:30:09;3.50;99.90
25280;DHT22;13225;47.804;12.116;2024-02-21T01:32:36;3.50;99.90
25280;DHT22;13225;47.804;12.116;2024-02-21T01:35:01;3.50;99.90
25280;DHT22;13225;47.804;12.116;2024-02-21T01:37:27;3.60;99.90
25280;DHT22;13225;47.804;12.116;2024-02-21T01:39:53;3.60;99.90
25280;DHT22;13225;47.804;12.116;2024-02-21T01:42:18;3.60;99.90
25280;DHT22;13225;47.804;12.116;2024-02-21T01:44:44;3.60;99.90
25280;DHT22;13225;47.804;12.116;2024-02-21T01:47:10;3.60;99.90
25280;DHT22;13225;47.804;12.116;2024-02-21T01:49:39;3.60;99.90
25280;DHT22;13225;47.804;12.116;2024-02-21T01:52:05;3.60;99.90
25280;DHT22;13225;47.804;12.116;2024-02-21T01:54:31;3.60;99.90
25280;DHT22;13225;47.804;12.116;2024-02-21T01:56:57;3.60;99.90
25280;DHT22;13225;47.804;12.116;2024-02-21T01:59:23;3.60;99.90
25280;DHT22;13225;47.804;12.116;2024-02-21T02:01:50;3.60;99.90
25280;DHT22;13225;47.804;12.116;2024-02-21T02:04:16;3.60;99.90
25280;DHT22;13225;47.804;12.116;2024-02-21T02:06:42;3.60;99.90
25280;DHT22;13225;47.804;12.116;2024-02-21T02:09:08;3.60;99.90
25280;DHT22;13225;47.804;12.116;2024-02-21T02:11:34;3.60;99.90
25280;DHT22;13225;47.804;12.116;2024-02-21T02:14:00;3.60;99.90
25280;DHT22;13225;47.804;12.116;2024-02-21T02:16:26;3.70;99.90
25280;DHT22;13225;47.804;12.116;2024-02-21T02:18:51;3.70;99.90
25280;DHT22;13225;47.804;12.116;2024-02-21T02:21:29;3.80;99.90
25280;DHT22;13225;47.804;12.116;2024-02-21T02:23:55;3.80;99.90
25280;DHT22;13225;47.804;12.116;2024-02-21T02:26:20;3.90;99.90
25280;DHT22;13225;47.804;12.116;2024-02-21T02:28:46;3.90;99.90
25280;DHT22;13225;47.804;12.116;2024-02-21T02:31:11;3.90;99.90
25280;DHT22;13225;47.804;12.116;2024-02-21T02:33:37;3.90;99.90
25280;DHT22;13225;47.804;12.116;2024-02-21T02:36:03;3.90;99.90
25280;DHT22;13225;47.804;12.116;2024-02-21T02:38:28;3.90;99.90
25280;DHT22;13225;47.804;12.116;2024-02-21T02:40:54;4.00;99.90
25280;DHT22;13225;47.804;12.116;2024-02-21T02:43:19;4.00;99.90
25280;DHT22;13225;47.804;12.116;2024-02-21T02:45:45;4.00;99.90
25280;DHT22;13225;47.804;12.116;2024-02-21T02:48:10;4.00;99.90
25280;DHT22;13225;47.804;12.116;2024-02-21T02:50:36;4.10;99.90
25280;DHT22;13225;47.804;12.116;2024-02-21T02:53:02;4.10;99.90
25280;DHT22;13225;47.804;12.116;2024-02-21T02:55:27;4.10;99.90
25280;DHT22;13225;47.804;12.116;2024-02-21T02:57:53;4.10;99.90
25280;DHT22;13225;47.804;12.116;2024-02-21T03:00:19;4.10;99.90
25280;DHT22;13225;47.804;12.116;2024-02-21T03:02:46;4.10;99.90
25280;DHT22;13225;47.804;12.116;2024-02-21T03:05:14;4.10;99.90
25280;DHT22;13225;47.804;12.116;2024-02-21T03:07:40;4.00;99.90
25280;DHT22;13225;47.804;12.116;2024-02-21T03:10:06;4.00;99.90
25280;DHT22;13225;47.804;12.116;2024-02-21T03:12:32;4.00;99.90
25280;DHT22;13225;47.804;12.116;2024-02-21T03:14:58;4.00;99.90
25280;DHT22;13225;47.804;12.116;2024-02-21T03:17:24;4.00;99.90
25280;DHT22;13225;47.804;12.116;2024-02-21T03:19:50;3.90;99.90
25280;DHT22;13225;47.804;12.116;2024-02-21T03:22:16;3.90;99.90
25280;DHT22;13225;47.804;12.116;2024-02-21T03:24:42;3.80;99.90
25280;DHT22;13225;47.804;12.116;2024-02-21T03:27:08;3.70;99.90
25280;DHT22;13225;47.804;12.116;2024-02-21T03:29:33;3.80;99.90
25280;DHT22;13225;47.804;12.116;2024-02-21T03:31:59;3.70;99.90
25280;DHT22;13225;47.804;12.116;2024-02-21T03:34:24;3.60;99.90
25280;DHT22;13225;47.804;12.116;2024-02-21T03:36:50;3.60;99.90
25280;DHT22;13225;47.804;12.116;2024-02-21T03:39:15;3.60;99.90
25280;DHT22;13225;47.804;12.116;2024-02-21T03:41:41;3.60;99.90
25280;DHT22;13225;47.804;12.116;2024-02-21T03:44:07;3.60;99.90
25280;DHT22;13225;47.804;12.116;2024-02-21T03:46:32;3.60;99.90
25280;DHT22;13225;47.804;12.116;2024-02-21T03:48:58;3.60;99.90
25280;DHT22;13225;47.804;12.116;2024-02-21T03:51:23;3.60;99.90
25280;DHT22;13225;47.804;12.116;2024-02-21T03:53:49;3.60;99.90
25280;DHT22;13225;47.804;12.116;2024-02-21T03:56:15;3.60;99.90
25280;DHT22;13225;47.804;12.116;2024-02-21T03:58:40;3.60;99.90
25280;DHT22;13225;47.804;12.116;2024-02-21T04:01:06;3.60;99.90
25280;DHT22;13225;47.804;12.116;2024-02-21T04:03:31;3.60;99.90
25280;DHT22;13225;47.804;12.116;2024-02-21T04:05:57;3.60;99.90
25280;DHT22;13225;47.804;12.116;2024-02-21T04:08:23;3.70;99.90
25280;DHT22;13225;47.804;12.116;2024-02-21T04:10:49;3.70;99.90
25280;DHT22;13225;47.804;12.116;2024-02-21T04:13:14;3.70;99.90
25280;DHT22;13225;47.804;12.116;2024-02-21T04:15:40;3.80;99.90
25280;DHT22;13225;47.804;12.116;2024-02-21T04:18:06;3.80;99.90
25280;DHT22;13225;47.804;12.116;2024-02-21T04:20:31;3.80;99.90
25280;DHT22;13225;47.804;12.116;2024-02-21T04:22:58;3.80;99.90
25280;DHT22;13225;47.804;12.116;2024-02-21T04:25:23;3.80;99.90
25280;DHT22;13225;47.804;12.116;2024-02-21T04:27:49;3.80;99.90
25280;DHT22;13225;47.804;12.116;2024-02-21T04:30:15;3.90;99.90
25280;DHT22;13225;47.804;12.116;2024-02-21T04:32:41;3.90;99.90
25280;DHT22;13225;47.804;12.116;2024-02-21T04:35:07;3.90;99.90
25280;DHT22;13225;47.804;12.116;2024-02-21T04:37:33;3.90;99.90
25280;DHT22;13225;47.804;12.116;2024-02-21T04:39:58;3.90;99.90
25280;DHT22;13225;47.804;12.116;2024-02-21T04:42:24;3.90;99.90
25280;DHT22;13225;47.804;12.116;2024-02-21T04:44:50;3.90;99.90
25280;DHT22;13225;47.804;12.116;2024-02-21T04:47:15;3.90;99.90
25280;DHT22;13225;47.804;12.116;2024-02-21T04:49:41;4.00;99.90
25280;DHT22;13225;47.804;12.116;2024-02-21T04:52:07;4.00;99.90
25280;DHT22;13225;47.804;12.116;2024-02-21T04:54:32;4.00;99.90
25280;DHT22;13225;47.804;12.116;2024-02-21T04:56:58;4.00;99.90
25280;DHT22;13225;47.804;12.116;2024-02-21T04:59:23;4.00;99.90
25280;DHT22;13225;47.804;12.116;2024-02-21T05:01:49;4.00;99.90
25280;DHT22;13225;47.804;12.116;2024-02-21T05:04:15;3.90;99.90
25280;DHT22;13225;47.804;12.116;2024-02-21T05:06:43;3.90;99.90
25280;DHT22;13225;47.804;12.116;2024-02-21T05:09:09;3.90;99.90
25280;DHT22;13225;47.804;12.116;2024-02-21T05:11:35;4.00;99.90
25280;DHT22;13225;47.804;12.116;2024-02-21T05:14:01;4.00;99.90
25280;DHT22;13225;47.804;12.116;2024-02-21T05:16:27;4.00;99.90
25280;DHT22;13225;47.804;12.116;2024-02-21T05:18:52;4.00;99.90
25280;DHT22;13225;47.804;12.116;2024-02-21T05:21:18;4.10;99.90
25280;DHT22;13225;47.804;12.116;2024-02-21T05:23:44;4.00;99.90
25280;DHT22;13225;47.804;12.116;2024-02-21T05:26:10;4.00;99.90
25280;DHT22;13225;47.804;12.116;2024-02-21T05:28:35;4.00;99.90
25280;DHT22;13225;47.804;12.116;2024-02-21T05:31:01;3.90;99.90
25280;DHT22;13225;47.804;12.116;2024-02-21T05:33:26;3.90;99.90
25280;DHT22;13225;47.804;12.116;2024-02-21T05:35:52;3.80;99.90
25280;DHT22;13225;47.804;12.116;2024-02-21T05:38:18;3.80;99.90
25280;DHT22;13225;47.804;12.116;2024-02-21T05:40:47;3.80;99.90
25280;DHT22;13225;47.804;12.116;2024-02-21T05:43:13;3.80;99.90
25280;DHT22;13225;47.804;12.116;2024-02-21T05:45:39;3.80;99.90
25280;DHT22;13225;47.804;12.116;2024-02-21T05:48:04;3.80;99.90
25280;DHT22;13225;47.804;12.116;2024-02-21T05:50:30;3.70;99.90
25280;DHT22;13225;47.804;12.116;2024-02-21T05:52:57;3.70;99.90
25280;DHT22;13225;47.804;12.116;2024-02-21T05:55:23;3.70;99.90
25280;DHT22;13225;47.804;12.116;2024-02-21T05:57:48;3.70;99.90
25280;DHT22;13225;47.804;12.116;2024-02-21T06:00:15;3.70;99.90
25280;DHT22;13225;47.804;12.116;2024-02-21T06:02:41;3.70;99.90
25280;DHT22;13225;47.804;12.116;2024-02-21T06:05:07;3.60;99.90
25280;DHT22;13225;47.804;12.116;2024-02-21T06:07:34;3.60;99.90
25280;DHT22;13225;47.804;12.116;2024-02-21T06:10:03;3.60;99.90
25280;DHT22;13225;47.804;12.116;2024-02-21T06:12:29;3.60;99.90
25280;DHT22;13225;47.804;12.116;2024-02-21T06:14:55;3.50;99.90
25280;DHT22;13225;47.804;12.116;2024-02-21T06:17:20;3.50;99.90
25280;DHT22;13225;47.804;12.116;2024-02-21T06:19:46;3.50;99.90
25280;DHT22;13225;47.804;12.116;2024-02-21T06:22:11;3.50;99.90
25280;DHT22;13225;47.804;12.116;2024-02-21T06:24:38;3.50;99.90
25280;DHT22;13225;47.804;12.116;2024-02-21T06:27:04;3.50;99.90
25280;DHT22;13225;47.804;12.116;2024-02-21T06:29:33;3.50;99.90
25280;DHT22;13225;47.804;12.116;2024-02-21T06:31:59;3.50;99.90
25280;DHT22;13225;47.804;12.116;2024-02-21T06:34:24;3.50;99.90
25280;DHT22;13225;47.804;12.116;2024-02-21T06:36:51;3.50;99.90
25280;DHT22;13225;47.804;12.116;2024-02-21T06:39:16;3.40;99.90
25280;DHT22;13225;47.804;12.116;2024-02-21T06:41:42;3.40;99.90
25280;DHT22;13225;47.804;12.116;2024-02-21T06:44:08;3.40;99.90
25280;DHT22;13225;47.804;12.116;2024-02-21T06:46:34;3.40;99.90
25280;DHT22;13225;47.804;12.116;2024-02-21T06:49:00;3.50;99.90
25280;DHT22;13225;47.804;12.116;2024-02-21T06:51:26;3.60;99.90
25280;DHT22;13225;47.804;12.116;2024-02-21T06:53:52;3.60;99.90
25280;DHT22;13225;47.804;12.116;2024-02-21T06:56:18;3.60;99.90
25280;DHT22;13225;47.804;12.116;2024-02-21T06:58:44;3.60;99.90
25280;DHT22;13225;47.804;12.116;2024-02-21T07:01:10;3.60;99.90
25280;DHT22;13225;47.804;12.116;2024-02-21T07:03:36;3.60;99.90
25280;DHT22;13225;47.804;12.116;2024-02-21T07:06:02;3.70;99.90
25280;DHT22;13225;47.804;12.116;2024-02-21T07:08:27;3.70;99.90
25280;DHT22;13225;47.804;12.116;2024-02-21T07:10:53;3.80;99.90
25280;DHT22;13225;47.804;12.116;2024-02-21T07:13:18;3.90;99.90
25280;DHT22;13225;47.804;12.116;2024-02-21T07:15:44;4.00;99.90
25280;DHT22;13225;47.804;12.116;2024-02-21T07:18:10;4.20;99.90
25280;DHT22;13225;47.804;12.116;2024-02-21T07:20:35;4.30;99.90
25280;DHT22;13225;47.804;12.116;2024-02-21T07:23:03;4.50;99.90
25280;DHT22;13225;47.804;12.116;2024-02-21T07:25:29;4.70;99.90
25280;DHT22;13225;47.804;12.116;2024-02-21T07:27:55;4.90;99.90
25280;DHT22;13225;47.804;12.116;2024-02-21T07:30:21;4.90;99.90
25280;DHT22;13225;47.804;12.116;2024-02-21T07:32:49;5.10;99.90
25280;DHT22;13225;47.804;12.116;2024-02-21T07:35:15;5.10;99.90
25280;DHT22;13225;47.804;12.116;2024-02-21T07:37:41;5.20;99.90
25280;DHT22;13225;47.804;12.116;2024-02-21T07:40:12;5.20;99.90
25280;DHT22;13225;47.804;12.116;2024-02-21T07:42:38;5.20;99.90
25280;DHT22;13225;47.804;12.116;2024-02-21T07:45:04;5.30;99.90
25280;DHT22;13225;47.804;12.116;2024-02-21T07:47:30;5.20;99.90
25280;DHT22;13225;47.804;12.116;2024-02-21T07:49:55;5.20;99.90
25280;DHT22;13225;47.804;12.116;2024-02-21T07:52:21;5.20;99.90
25280;DHT22;13225;47.804;12.116;2024-02-21T07:54:46;5.30;99.90
25280;DHT22;13225;47.804;12.116;2024-02-21T07:57:12;5.20;99.90
25280;DHT22;13225;47.804;12.116;2024-02-21T07:59:37;5.20;99.90
25280;DHT22;13225;47.804;12.116;2024-02-21T08:02:03;5.20;99.90
25280;DHT22;13225;47.804;12.116;2024-02-21T08:04:32;5.10;99.90
25280;DHT22;13225;47.804;12.116;2024-02-21T08:06:57;5.00;99.90
25280;DHT22;13225;47.804;12.116;2024-02-21T08:09:26;5.00;99.90
25280;DHT22;13225;47.804;12.116;2024-02-21T08:11:53;5.00;99.90
25280;DHT22;13225;47.804;12.116;2024-02-21T08:14:19;5.00;99.90
25280;DHT22;13225;47.804;12.116;2024-02-21T08:16:45;5.10;99.90
25280;DHT22;13225;47.804;12.116;2024-02-21T08:19:10;5.20;99.90
25280;DHT22;13225;47.804;12.116;2024-02-21T08:21:36;5.10;99.90
25280;DHT22;13225;47.804;12.116;2024-02-21T08:24:02;5.20;99.90
25280;DHT22;13225;47.804;12.116;2024-02-21T08:26:27;5.30;99.90
25280;DHT22;13225;47.804;12.116;2024-02-21T08:28:55;5.50;99.90
25280;DHT22;13225;47.804;12.116;2024-02-21T08:31:24;5.40;99.90
25280;DHT22;13225;47.804;12.116;2024-02-21T08:33:54;5.50;99.90
25280;DHT22;13225;47.804;12.116;2024-02-21T08:36:20;5.60;99.90
25280;DHT22;13225;47.804;12.116;2024-02-21T08:38:46;5.60;99.90
25280;DHT22;13225;47.804;12.116;2024-02-21T08:41:11;5.70;99.90
25280;DHT22;13225;47.804;12.116;2024-02-21T08:43:37;5.70;99.90
25280;DHT22;13225;47.804;12.116;2024-02-21T08:46:04;5.70;99.90
25280;DHT22;13225;47.804;12.116;2024-02-21T08:48:30;5.90;99.90
25280;DHT22;13225;47.804;12.116;2024-02-21T08:50:56;5.60;99.90
25280;DHT22;13225;47.804;12.116;2024-02-21T08:53:21;5.70;99.90
25280;DHT22;13225;47.804;12.116;2024-02-21T08:55:47;5.60;99.90
25280;DHT22;13225;47.804;12.116;2024-02-21T08:58:12;5.70;99.90
25280;DHT22;13225;47.804;12.116;2024-02-21T09:00:40;5.70;99.90
25280;DHT22;13225;47.804;12.116;2024-02-21T09:03:05;5.60;99.90
25280;DHT22;13225;47.804;12.116;2024-02-21T09:05:31;5.70;99.90
25280;DHT22;13225;47.804;12.116;2024-02-21T09:07:56;5.80;99.90
25280;DHT22;13225;47.804;12.116;2024-02-21T09:10:22;6.10;99.90
25280;DHT22;13225;47.804;12.116;2024-02-21T09:12:48;6.30;99.90
25280;DHT22;13225;47.804;12.116;2024-02-21T09:15:13;6.50;99.90
25280;DHT22;13225;47.804;12.116;2024-02-21T09:17:39;6.80;99.90
25280;DHT22;13225;47.804;12.116;2024-02-21T09:20:05;7.10;99.90
25280;DHT22;13225;47.804;12.116;2024-02-21T09:22:32;7.20;99.90
25280;DHT22;13225;47.804;12.116;2024-02-21T09:25:00;7.40;99.90
25280;DHT22;13225;47.804;12.116;2024-02-21T09:27:26;7.50;99.90
25280;DHT22;13225;47.804;12.116;2024-02-21T09:29:51;7.50;99.90
25280;DHT22;13225;47.804;12.116;2024-02-21T09:32:20;7.40;99.90
25280;DHT22;13225;47.804;12.116;2024-02-21T09:34:46;7.50;99.90
25280;DHT22;13225;47.804;12.116;2024-02-21T09:37:11;7.60;99.90
25280;DHT22;13225;47.804;12.116;2024-02-21T09:39:37;7.80;99.90
25280;DHT22;13225;47.804;12.116;2024-02-21T09:42:06;7.90;99.90
25280;DHT22;13225;47.804;12.116;2024-02-21T09:44:37;8.10;99.90
25280;DHT22;13225;47.804;12.116;2024-02-21T09:47:22;8.20;99.90
25280;DHT22;13225;47.804;12.116;2024-02-21T09:49:48;8.20;99.90
25280;DHT22;13225;47.804;12.116;2024-02-21T09:52:15;8.40;99.90
25280;DHT22;13225;47.804;12.116;2024-02-21T09:54:41;8.20;99.90
25280;DHT22;13225;47.804;12.116;2024-02-21T09:57:11;8.00;99.90
25280;DHT22;13225;47.804;12.116;2024-02-21T09:59:37;8.00;99.90
25280;DHT22;13225;47.804;12.116;2024-02-21T10:02:03;8.00;99.90
25280;DHT22;13225;47.804;12.116;2024-02-21T10:04:30;8.20;99.90
25280;DHT22;13225;47.804;12.116;2024-02-21T10:06:56;8.40;99.90
25280;DHT22;13225;47.804;12.116;2024-02-21T10:09:29;8.30;99.90
25280;DHT22;13225;47.804;12.116;2024-02-21T10:11:56;8.20;99.90
25280;DHT22;13225;47.804;12.116;2024-02-21T10:14:21;8.30;99.90
25280;DHT22;13225;47.804;12.116;2024-02-21T10:16:48;8.20;99.90
25280;DHT22;13225;47.804;12.116;2024-02-21T10:19:21;8.20;99.90
25280;DHT22;13225;47.804;12.116;2024-02-21T10:22:09;8.30;99.90
25280;DHT22;13225;47.804;12.116;2024-02-21T10:24:36;8.50;99.90
25280;DHT22;13225;47.804;12.116;2024-02-21T10:27:08;8.60;99.90
25280;DHT22;13225;47.804;12.116;2024-02-21T10:29:37;8.70;99.90
25280;DHT22;13225;47.804;12.116;2024-02-21T10:32:10;8.80;99.90
25280;DHT22;13225;47.804;12.116;2024-02-21T10:34:39;8.90;99.90
25280;DHT22;13225;47.804;12.116;2024-02-21T10:37:09;8.90;99.90
25280;DHT22;13225;47.804;12.116;2024-02-21T10:39:40;9.10;99.90
25280;DHT22;13225;47.804;12.116;2024-02-21T10:42:06;9.30;99.90
25280;DHT22;13225;47.804;12.116;2024-02-21T10:44:38;9.60;99.90
25280;DHT22;13225;47.804;12.116;2024-02-21T10:47:08;9.90;99.90
25280;DHT22;13225;47.804;12.116;2024-02-21T10:49:38;10.00;99.90
25280;DHT22;13225;47.804;12.116;2024-02-21T10:55:24;9.90;99.90
25280;DHT22;13225;47.804;12.116;2024-02-21T10:57:52;10.10;99.90
25280;DHT22;13225;47.804;12.116;2024-02-21T11:00:18;10.10;99.90
25280;DHT22;13225;47.804;12.116;2024-02-21T11:02:46;10.10;99.90
25280;DHT22;13225;47.804;12.116;2024-02-21T11:05:12;10.10;99.90
25280;DHT22;13225;47.804;12.116;2024-02-21T11:07:38;10.10;99.90
25280;DHT22;13225;47.804;12.116;2024-02-21T11:10:05;10.30;99.90
25280;DHT22;13225;47.804;12.116;2024-02-21T11:12:33;10.40;99.90
25280;DHT22;13225;47.804;12.116;2024-02-21T11:15:08;10.60;99.90
25280;DHT22;13225;47.804;12.116;2024-02-21T11:17:34;10.80;99.90
25280;DHT22;13225;47.804;12.116;2024-02-21T11:20:13;10.90;99.90
25280;DHT22;13225;47.804;12.116;2024-02-21T11:22:42;10.80;99.90
25280;DHT22;13225;47.804;12.116;2024-02-21T11:25:09;11.00;99.90
25280;DHT22;13225;47.804;12.116;2024-02-21T11:27:37;10.90;99.90
25280;DHT22;13225;47.804;12.116;2024-02-21T11:30:05;11.10;99.90
25280;DHT22;13225;47.804;12.116;2024-02-21T11:32:31;11.20;99.90
25280;DHT22;13225;47.804;12.116;2024-02-21T11:35:04;11.10;99.90
25280;DHT22;13225;47.804;12.116;2024-02-21T11:37:35;10.90;99.90
25280;DHT22;13225;47.804;12.116;2024-02-21T11:40:04;10.90;99.90
25280;DHT22;13225;47.804;12.116;2024-02-21T11:42:32;11.00;99.90
25280;DHT22;13225;47.804;12.116;2024-02-21T11:44:59;11.10;99.90
25280;DHT22;13225;47.804;12.116;2024-02-21T11:47:25;11.20;99.90
25280;DHT22;13225;47.804;12.116;2024-02-21T11:49:50;11.30;99.90
25280;DHT22;13225;47.804;12.116;2024-02-21T11:52:23;11.40;99.90
25280;DHT22;13225;47.804;12.116;2024-02-21T11:54:53;11.30;99.90
25280;DHT22;13225;47.804;12.116;2024-02-21T11:57:20;11.40;99.90
25280;DHT22;13225;47.804;12.116;2024-02-21T11:59:46;11.60;99.90
25280;DHT22;13225;47.804;12.116;2024-02-21T12:02:12;12.10;99.90
25280;DHT22;13225;47.804;12.116;2024-02-21T12:04:38;12.20;99.90
25280;DHT22;13225;47.804;12.116;2024-02-21T12:07:04;12.40;99.90
25280;DHT22;13225;47.804;12.116;2024-02-21T12:09:30;12.30;99.90
25280;DHT22;13225;47.804;12.116;2024-02-21T12:12:03;12.70;99.90
25280;DHT22;13225;47.804;12.116;2024-02-21T12:14:31;12.90;99.90
25280;DHT22;13225;47.804;12.116;2024-02-21T12:17:00;12.80;99.90
25280;DHT22;13225;47.804;12.116;2024-02-21T12:19:29;12.70;99.90
25280;DHT22;13225;47.804;12.116;2024-02-21T12:21:55;12.80;99.90
25280;DHT22;13225;47.804;12.116;2024-02-21T12:24:23;12.90;99.90
25280;DHT22;13225;47.804;12.116;2024-02-21T12:26:53;13.10;99.30
25280;DHT22;13225;47.804;12.116;2024-02-21T12:29:20;13.30;99.50
25280;DHT22;13225;47.804;12.116;2024-02-21T12:31:46;13.50;99.50
25280;DHT22;13225;47.804;12.116;2024-02-21T12:34:11;13.60;98.90
25280;DHT22;13225;47.804;12.116;2024-02-21T12:36:44;13.60;97.70
25280;DHT22;13225;47.804;12.116;2024-02-21T12:39:10;13.90;98.70
25280;DHT22;13225;47.804;12.116;2024-02-21T12:41:37;14.20;96.80
25280;DHT22;13225;47.804;12.116;2024-02-21T12:44:07;14.20;96.90
25280;DHT22;13225;47.804;12.116;2024-02-21T12:46:35;14.40;96.40
25280;DHT22;13225;47.804;12.116;2024-02-21T12:49:02;14.30;95.70
25280;DHT22;13225;47.804;12.116;2024-02-21T12:51:28;14.60;95.20
25280;DHT22;13225;47.804;12.116;2024-02-21T12:53:55;15.10;95.50
25280;DHT22;13225;47.804;12.116;2024-02-21T12:56:20;14.60;94.80
25280;DHT22;13225;47.804;12.116;2024-02-21T12:58:46;14.60;94.80
25280;DHT22;13225;47.804;12.116;2024-02-21T13:01:12;14.80;94.10
25280;DHT22;13225;47.804;12.116;2024-02-21T13:03:38;14.70;94.50
25280;DHT22;13225;47.804;12.116;2024-02-21T13:06:04;14.70;94.40
25280;DHT22;13225;47.804;12.116;2024-02-21T13:08:30;15.20;94.70
25280;DHT22;13225;47.804;12.116;2024-02-21T13:10:55;15.90;93.30
25280;DHT22;13225;47.804;12.116;2024-02-21T13:13:21;16.40;92.40
25280;DHT22;13225;47.804;12.116;2024-02-21T13:15:47;15.90;91.50
25280;DHT22;13225;47.804;12.116;2024-02-21T13:18:12;15.90;91.10
25280;DHT22;13225;47.804;12.116;2024-02-21T13:20:38;16.20;91.90
25280;DHT22;13225;47.804;12.116;2024-02-21T13:23:04;16.10;90.40
25280;DHT22;13225;47.804;12.116;2024-02-21T13:25:29;16.10;92.20
25280;DHT22;13225;47.804;12.116;2024-02-21T13:27:55;16.00;90.30
25280;DHT22;13225;47.804;12.116;2024-02-21T13:30:22;15.80;91.10
25280;DHT22;13225;47.804;12.116;2024-02-21T13:32:47;15.70;90.70
25280;DHT22;13225;47.804;12.116;2024-02-21T13:35:14;15.80;91.40
25280;DHT22;13225;47.804;12.116;2024-02-21T13:37:41;16.10;90.30
25280;DHT22;13225;47.804;12.116;2024-02-21T13:40:07;16.10;90.50
25280;DHT22;13225;47.804;12.116;2024-02-21T13:42:34;16.00;90.40
25280;DHT22;13225;47.804;12.116;2024-02-21T13:45:00;16.20;91.80
25280;DHT22;13225;47.804;12.116;2024-02-21T13:47:27;16.30;90.70
25280;DHT22;13225;47.804;12.116;2024-02-21T13:49:52;16.30;90.20
25280;DHT22;13225;47.804;12.116;2024-02-21T13:52:18;15.90;89.00
25280;DHT22;13225;47.804;12.116;2024-02-21T13:54:47;15.80;90.70
25280;DHT22;13225;47.804;12.116;2024-02-21T13:57:13;16.00;91.70
25280;DHT22;13225;47.804;12.116;2024-02-21T13:59:39;16.00;91.30
25280;DHT22;13225;47.804;12.116;2024-02-21T14:02:05;16.20;90.50
25280;DHT22;13225;47.804;12.116;2024-02-21T14:04:35;16.40;90.90
25280;DHT22;13225;47.804;12.116;2024-02-21T14:07:01;16.30;89.90
25280;DHT22;13225;47.804;12.116;2024-02-21T14:09:27;16.10;89.00
25280;DHT22;13225;47.804;12.116;2024-02-21T14:11:55;15.70;90.00
25280;DHT22;13225;47.804;12.116;2024-02-21T14:14:21;15.50;90.20
25280;DHT22;13225;47.804;12.116;2024-02-21T14:16:47;15.40;90.30
25280;DHT22;13225;47.804;12.116;2024-02-21T14:19:13;15.00;91.40
25280;DHT22;13225;47.804;12.116;2024-02-21T14:21:39;14.60;91.40
25280;DHT22;13225;47.804;12.116;2024-02-21T14:24:05;14.50;91.40
25280;DHT22;13225;47.804;12.116;2024-02-21T14:26:31;14.30;91.80
25280;DHT22;13225;47.804;12.116;2024-02-21T14:28:57;14.50;92.20
25280;DHT22;13225;47.804;12.116;2024-02-21T14:31:23;14.30;92.10
25280;DHT22;13225;47.804;12.116;2024-02-21T14:33:49;14.20;91.70
25280;DHT22;13225;47.804;12.116;2024-02-21T14:36:14;14.30;92.60
25280;DHT22;13225;47.804;12.116;2024-02-21T14:38:43;14.10;91.90
25280;DHT22;13225;47.804;12.116;2024-02-21T14:41:10;14.00;92.40
25280;DHT22;13225;47.804;12.116;2024-02-21T14:43:39;14.00;94.20
25280;DHT22;13225;47.804;12.116;2024-02-21T14:46:04;14.00;92.90
25280;DHT22;13225;47.804;12.116;2024-02-21T14:48:31;13.90;93.70
25280;DHT22;13225;47.804;12.116;2024-02-21T14:50:58;13.90;93.30
25280;DHT22;13225;47.804;12.116;2024-02-21T14:53:24;13.80;93.20
25280;DHT22;13225;47.804;12.116;2024-02-21T14:55:50;13.70;92.60
25280;DHT22;13225;47.804;12.116;2024-02-21T14:58:16;13.60;93.40
25280;DHT22;13225;47.804;12.116;2024-02-21T15:00:43;13.60;93.20
25280;DHT22;13225;47.804;12.116;2024-02-21T15:03:09;13.60;93.50
25280;DHT22;13225;47.804;12.116;2024-02-21T15:05:36;13.60;93.80
25280;DHT22;13225;47.804;12.116;2024-02-21T15:08:01;13.50;94.40
25280;DHT22;13225;47.804;12.116;2024-02-21T15:10:27;13.40;93.70
25280;DHT22;13225;47.804;12.116;2024-02-21T15:12:53;13.50;93.70
25280;DHT22;13225;47.804;12.116;2024-02-21T15:15:18;13.30;93.70
25280;DHT22;13225;47.804;12.116;2024-02-21T15:17:44;13.30;94.40
25280;DHT22;13225;47.804;12.116;2024-02-21T15:20:09;13.00;93.90
25280;DHT22;13225;47.804;12.116;2024-02-21T15:22:36;13.00;95.00
25280;DHT22;13225;47.804;12.116;2024-02-21T15:25:02;13.00;95.10